Time;durP1;ratioP1;P1;durP2;ratioP2;P2;SDS_P1;SDS_P2;PMS_P1;PMS_P2;Temp;Humidity;BMP_temperature;BMP_pressure;BME280_temperature;BME280_humidity;BME280_pressure;Samples;Min_cycle;Max_cycle;Signal;HPM_P1;HPM_P2
2022/08/30 00:02:55;;;;;;;3.45;0.10;;;29.80;36.30;;;;;;5078191;28;20406;-82
2022/08/30 00:05:22;;;;;;;0.30;0.28;;;29.80;35.70;;;;;;5079819;28;20037;-82
2022/08/30 00:07:50;;;;;;;0.90;0.30;;;29.80;35.70;;;;;;5078170;28;20398;-82
2022/08/30 00:10:17;;;;;;;0.40;0.30;;;29.70;35.60;;;;;;5066598;28;20093;-82
2022/08/30 00:12:44;;;;;;;0.43;0.20;;;29.70;35.60;;;;;;5079188;28;20083;-82
2022/08/30 00:15:12;;;;;;;1.20;0.30;;;29.70;35.60;;;;;;5080297;28;20037;-82
2022/08/30 00:17:40;;;;;;;3.80;0.38;;;29.70;35.60;;;;;;5060043;28;20071;-82
2022/08/30 00:20:11;;;;;;;0.38;0.20;;;29.70;35.60;;;;;;5073339;28;20108;-82
2022/08/30 00:22:38;;;;;;;0.82;0.20;;;29.70;35.60;;;;;;5084167;28;20047;-83
2022/08/30 00:25:07;;;;;;;0.17;0.17;;;29.70;35.60;;;;;;5075282;28;20057;-83
2022/08/30 00:27:34;;;;;;;0.50;0.10;;;29.70;35.60;;;;;;5067065;28;20071;-83
2022/08/30 00:30:01;;;;;;;1.05;0.10;;;29.70;35.60;;;;;;5066497;28;20100;-84
2022/08/30 00:32:28;;;;;;;1.50;0.57;;;29.70;35.50;;;;;;5063508;28;20045;-82
2022/08/30 00:34:55;;;;;;;1.27;0.30;;;29.70;35.50;;;;;;5061979;28;20041;-83
2022/08/30 00:37:24;;;;;;;0.95;0.38;;;29.70;35.50;;;;;;5065500;28;20452;-82
2022/08/30 00:39:51;;;;;;;2.15;0.20;;;29.70;35.50;;;;;;5081408;28;20092;-83
2022/08/30 00:42:20;;;;;;;1.33;0.30;;;29.60;35.40;;;;;;5086366;28;20028;-82
2022/08/30 00:44:48;;;;;;;0.95;0.20;;;29.70;35.50;;;;;;5087566;28;20037;-83
2022/08/30 00:47:15;;;;;;;0.70;0.70;;;29.60;35.40;;;;;;5092312;28;20043;-84
2022/08/30 00:49:46;;;;;;;0.93;0.20;;;29.60;35.40;;;;;;5092614;28;20043;-83
2022/08/30 00:52:15;;;;;;;0.63;0.10;;;29.60;35.40;;;;;;5093272;28;20419;-84
2022/08/30 00:54:44;;;;;;;0.43;0.20;;;29.60;35.40;;;;;;5094160;28;20040;-86
2022/08/30 00:57:13;;;;;;;1.73;0.20;;;29.60;35.40;;;;;;5093666;28;20524;-85
2022/08/30 00:59:43;;;;;;;0.50;0.20;;;29.60;35.40;;;;;;5089560;28;20052;-84
2022/08/30 01:02:10;;;;;;;2.08;0.43;;;29.60;36.00;;;;;;5086143;28;20040;-84
2022/08/30 01:04:39;;;;;;;0.80;0.32;;;29.60;35.40;;;;;;5085506;28;20033;-83
2022/08/30 01:07:07;;;;;;;0.40;0.20;;;29.60;36.00;;;;;;5083214;28;20497;-83
2022/08/30 01:09:34;;;;;;;0.20;0.17;;;29.50;35.30;;;;;;5069006;28;20041;-83
2022/08/30 01:12:03;;;;;;;0.80;0.30;;;29.50;35.30;;;;;;5070301;28;20069;-83
2022/08/30 01:14:32;;;;;;;0.60;0.20;;;29.50;35.30;;;;;;5066928;28;20052;-83
2022/08/30 01:17:01;;;;;;;0.20;0.20;;;29.50;35.30;;;;;;5059723;28;20048;-82
2022/08/30 01:19:35;;;;;;;0.57;0.25;;;29.50;35.30;;;;;;5083951;28;20107;-83
2022/08/30 01:22:08;;;;;;;3.40;0.73;;;29.50;35.30;;;;;;5050316;28;20044;-84
2022/08/30 01:24:37;;;;;;;0.55;0.30;;;29.50;35.30;;;;;;5068918;28;20037;-82
2022/08/30 01:27:04;;;;;;;0.90;0.30;;;29.50;35.30;;;;;;5076260;28;20028;-84
2022/08/30 01:29:32;;;;;;;0.40;0.38;;;29.50;35.30;;;;;;5092803;28;20041;-84
2022/08/30 01:31:59;;;;;;;0.30;0.20;;;29.50;35.30;;;;;;5072992;28;20060;-80
2022/08/30 01:34:26;;;;;;;0.43;0.17;;;29.50;35.40;;;;;;5076243;28;20098;-83
2022/08/30 01:36:53;;;;;;;0.75;0.30;;;29.50;35.30;;;;;;5092515;28;20051;-84
2022/08/30 01:39:20;;;;;;;0.35;0.20;;;29.50;35.30;;;;;;5092986;28;20044;-82
2022/08/30 01:41:49;;;;;;;3.72;0.20;;;29.50;35.30;;;;;;5093784;28;20025;-84
2022/08/30 01:44:16;;;;;;;0.57;0.20;;;29.50;35.30;;;;;;5093779;28;20036;-85
2022/08/30 01:46:45;;;;;;;0.93;0.30;;;29.50;35.30;;;;;;5093151;28;20027;-84
2022/08/30 01:49:14;;;;;;;0.60;0.32;;;29.50;35.30;;;;;;5091819;28;20046;-83
2022/08/30 01:51:41;;;;;;;0.20;0.20;;;29.50;35.30;;;;;;5089930;28;20100;-83
2022/08/30 01:54:09;;;;;;;0.57;0.22;;;29.50;35.30;;;;;;5089649;28;20579;-83
2022/08/30 01:56:37;;;;;;;0.55;0.20;;;29.50;35.30;;;;;;5091176;28;20036;-84
2022/08/30 01:59:05;;;;;;;1.83;0.32;;;29.40;35.20;;;;;;5093399;28;20040;-86
2022/08/30 02:01:35;;;;;;;0.43;0.25;;;29.50;35.90;;;;;;5093079;28;20020;-85
2022/08/30 02:04:03;;;;;;;0.22;0.10;;;29.40;35.20;;;;;;5093632;28;20059;-83
2022/08/30 02:06:30;;;;;;;0.40;0.40;;;29.40;35.20;;;;;;5077342;28;20045;-84
2022/08/30 02:08:57;;;;;;;1.38;0.30;;;29.40;35.10;;;;;;5073381;28;20055;-84
2022/08/30 02:11:25;;;;;;;1.95;0.13;;;29.40;35.10;;;;;;5072872;28;20037;-83
2022/08/30 02:13:52;;;;;;;0.85;0.35;;;29.50;35.20;;;;;;5072180;28;20049;-85
2022/08/30 02:16:22;;;;;;;3.65;0.30;;;29.40;35.10;;;;;;5053340;28;20037;-84
2022/08/30 02:18:50;;;;;;;0.98;0.30;;;29.40;35.10;;;;;;5072728;28;20109;-85
2022/08/30 02:21:17;;;;;;;0.60;0.30;;;29.40;35.20;;;;;;5074777;28;20076;-85
2022/08/30 02:23:44;;;;;;;2.50;0.40;;;29.40;35.20;;;;;;5087372;28;20588;-83
2022/08/30 02:26:13;;;;;;;0.43;0.28;;;29.40;35.20;;;;;;5095669;28;20060;-84
2022/08/30 02:28:40;;;;;;;0.38;0.20;;;29.40;35.20;;;;;;5096189;28;20036;-83
2022/08/30 02:31:07;;;;;;;1.08;0.20;;;29.40;35.20;;;;;;5096328;28;20044;-84
2022/08/30 02:33:36;;;;;;;2.55;0.30;;;29.40;35.20;;;;;;5097388;28;20044;-85
2022/08/30 02:36:04;;;;;;;0.70;0.30;;;29.40;35.20;;;;;;5096868;28;20648;-84
2022/08/30 02:38:31;;;;;;;2.63;0.40;;;29.40;35.30;;;;;;5094242;28;20049;-84
2022/08/30 02:40:58;;;;;;;0.45;0.20;;;29.40;35.30;;;;;;5094245;28;20104;-84
2022/08/30 02:43:25;;;;;;;1.33;0.20;;;29.40;35.30;;;;;;5100310;28;20043;-87
2022/08/30 02:45:53;;;;;;;0.40;0.20;;;29.40;35.30;;;;;;5099730;28;20029;-87
2022/08/30 02:48:21;;;;;;;0.20;0.20;;;29.30;35.30;;;;;;5098803;28;20054;-86
2022/08/30 02:50:51;;;;;;;0.20;0.20;;;29.30;35.30;;;;;;5098050;28;20108;-87
2022/08/30 02:53:20;;;;;;;1.60;0.20;;;29.30;35.30;;;;;;5100496;28;20062;-87
2022/08/30 02:55:48;;;;;;;0.50;0.40;;;29.30;35.30;;;;;;5182903;22;20049;-88
2022/08/30 02:58:15;;;;;;;1.65;0.20;;;29.30;35.30;;;;;;5077610;28;20402;-87
2022/08/30 03:00:42;;;;;;;1.85;0.20;;;29.40;35.40;;;;;;5085049;28;20108;-86
2022/08/30 03:03:09;;;;;;;1.25;0.38;;;29.30;35.30;;;;;;5094757;28;20052;-88
2022/08/30 03:05:38;;;;;;;1.17;0.20;;;29.30;35.30;;;;;;5096918;28;20056;-90
2022/08/30 03:08:06;;;;;;;1.33;0.30;;;29.30;35.30;;;;;;5099233;28;20032;-88
2022/08/30 03:10:33;;;;;;;4.13;0.63;;;29.30;35.40;;;;;;5080295;28;20036;-85
2022/08/30 03:13:02;;;;;;;0.63;0.20;;;29.30;35.40;;;;;;5094999;28;20066;-85
2022/08/30 03:15:29;;;;;;;1.80;0.32;;;29.30;36.00;;;;;;5072762;28;20063;-83
2022/08/30 03:17:57;;;;;;;0.40;0.13;;;29.30;35.40;;;;;;5064236;28;20110;-82
2022/08/30 03:20:24;;;;;;;0.40;0.30;;;29.30;36.10;;;;;;5068846;28;20421;-84
2022/08/30 03:22:52;;;;;;;1.42;0.40;;;29.30;35.60;;;;;;5065963;28;20103;-83
2022/08/30 03:25:21;;;;;;;1.13;0.32;;;29.30;35.60;;;;;;5057162;28;20498;-80
2022/08/30 03:27:49;;;;;;;0.95;0.25;;;29.30;35.70;;;;;;5054953;28;20392;-83
2022/08/30 03:30:17;;;;;;;0.38;0.20;;;29.30;35.90;;;;;;5057921;28;20417;-82
2022/08/30 03:32:45;;;;;;;0.40;0.20;;;29.20;36.50;;;;;;5073319;28;20076;-83
2022/08/30 03:35:13;;;;;;;0.88;0.20;;;29.20;36.00;;;;;;5072743;28;20041;-83
2022/08/30 03:37:40;;;;;;;4.03;0.30;;;29.20;36.00;;;;;;5055073;28;20094;-81
2022/08/30 03:40:09;;;;;;;0.95;0.52;;;29.20;36.20;;;;;;5064341;28;20398;-83
2022/08/30 03:42:40;;;;;;;0.40;0.20;;;29.20;36.30;;;;;;5068547;28;20064;-81
2022/08/30 03:45:08;;;;;;;2.65;0.40;;;29.20;36.30;;;;;;5058745;28;20064;-83
2022/08/30 03:47:35;;;;;;;2.88;0.40;;;29.20;36.40;;;;;;5074950;28;20036;-83
2022/08/30 03:50:04;;;;;;;2.63;0.77;;;29.20;36.50;;;;;;5058438;28;20094;-83
2022/08/30 03:52:31;;;;;;;3.35;0.40;;;29.20;36.60;;;;;;5076198;28;20051;-83
2022/08/30 03:54:59;;;;;;;0.73;0.30;;;29.20;36.70;;;;;;5066038;28;20099;-85
2022/08/30 03:57:26;;;;;;;1.55;0.35;;;29.20;36.80;;;;;;5055545;28;20041;-83
2022/08/30 03:59:54;;;;;;;0.85;0.20;;;29.20;36.80;;;;;;5055574;28;20144;-83
2022/08/30 04:02:22;;;;;;;2.10;0.40;;;29.10;36.80;;;;;;5058326;28;20412;-82
2022/08/30 04:04:49;;;;;;;3.00;0.40;;;29.10;36.90;;;;;;5072888;28;20047;-82
2022/08/30 04:07:17;;;;;;;0.95;0.20;;;29.10;37.00;;;;;;5073181;28;20048;-83
2022/08/30 04:09:46;;;;;;;0.52;0.17;;;29.10;37.00;;;;;;5059369;28;20048;-83
2022/08/30 04:12:13;;;;;;;2.30;0.28;;;29.10;37.10;;;;;;5072139;28;20076;-82
2022/08/30 04:14:40;;;;;;;1.23;0.55;;;29.10;37.20;;;;;;5073030;28;20114;-82
2022/08/30 04:17:09;;;;;;;0.75;0.57;;;29.10;37.20;;;;;;5069889;28;20052;-84
2022/08/30 04:19:36;;;;;;;1.30;1.15;;;29.10;37.30;;;;;;5052214;28;20045;-84
2022/08/30 04:22:03;;;;;;;1.80;1.10;;;29.10;37.30;;;;;;5052584;28;20531;-83
2022/08/30 04:24:31;;;;;;;3.88;0.20;;;29.10;37.40;;;;;;5052604;28;20048;-83
2022/08/30 04:26:58;;;;;;;4.13;0.25;;;29.10;37.50;;;;;;5052418;28;20604;-84
2022/08/30 04:29:25;;;;;;;0.98;0.20;;;29.10;37.50;;;;;;5052637;28;20116;-84
2022/08/30 04:31:52;;;;;;;2.60;0.45;;;29.10;37.60;;;;;;5053268;28;20060;-84
2022/08/30 04:34:21;;;;;;;2.00;0.82;;;29.10;37.70;;;;;;5058123;28;20049;-84
2022/08/30 04:36:48;;;;;;;2.20;0.57;;;29.10;37.80;;;;;;5060239;28;20132;-84
2022/08/30 04:39:17;;;;;;;7.57;0.50;;;29.00;37.80;;;;;;5057957;28;20119;-83
2022/08/30 04:41:44;;;;;;;0.40;0.35;;;29.00;37.90;;;;;;5074062;28;20048;-83
2022/08/30 04:44:12;;;;;;;2.25;0.85;;;29.00;37.90;;;;;;5074468;28;20043;-83
2022/08/30 04:46:39;;;;;;;0.40;0.40;;;29.10;38.10;;;;;;5074542;28;20076;-84
2022/08/30 04:49:06;;;;;;;0.80;0.40;;;29.00;38.00;;;;;;5071991;28;20107;-83
2022/08/30 04:51:34;;;;;;;5.35;0.40;;;29.00;38.10;;;;;;5073360;28;20072;-83
2022/08/30 04:54:01;;;;;;;1.10;0.25;;;29.00;38.10;;;;;;5072954;28;20135;-82
2022/08/30 04:56:28;;;;;;;0.55;0.22;;;29.00;38.20;;;;;;5033024;28;20128;-83
2022/08/30 04:58:56;;;;;;;1.05;0.50;;;29.00;38.20;;;;;;5033251;28;20136;-83
2022/08/30 05:01:25;;;;;;;0.70;0.10;;;29.00;38.30;;;;;;5032767;28;20504;-82
2022/08/30 05:03:53;;;;;;;1.48;0.35;;;29.00;38.30;;;;;;5031893;28;20038;-82
2022/08/30 05:06:22;;;;;;;1.20;0.20;;;29.00;38.30;;;;;;5063572;28;20059;-82
2022/08/30 05:08:51;;;;;;;1.00;0.22;;;29.00;38.40;;;;;;5063867;28;20041;-82
2022/08/30 05:11:18;;;;;;;2.55;0.68;;;29.00;38.40;;;;;;5067700;28;20047;-82
2022/08/30 05:13:46;;;;;;;1.65;0.45;;;28.90;38.40;;;;;;5072000;28;20509;-82
2022/08/30 05:16:16;;;;;;;2.65;0.30;;;28.90;38.40;;;;;;5071868;28;20119;-82
2022/08/30 05:18:44;;;;;;;3.63;0.40;;;28.90;38.40;;;;;;5072381;28;20124;-82
2022/08/30 05:21:14;;;;;;;0.32;0.32;;;28.90;38.50;;;;;;5058121;28;20071;-82
2022/08/30 05:23:42;;;;;;;2.75;0.57;;;28.90;38.50;;;;;;5052247;28;20049;-82
2022/08/30 05:26:14;;;;;;;0.32;0.30;;;28.90;38.50;;;;;;5056942;28;20041;-82
2022/08/30 05:28:41;;;;;;;0.70;0.25;;;28.80;38.50;;;;;;5067195;28;20040;-81
2022/08/30 05:31:14;;;;;;;1.85;0.38;;;28.80;38.50;;;;;;5071112;28;20032;-82
2022/08/30 05:33:41;;;;;;;0.77;0.10;;;28.80;38.60;;;;;;5071249;28;20040;-83
2022/08/30 05:36:10;;;;;;;1.60;0.28;;;28.80;38.60;;;;;;5044407;28;20037;-81
2022/08/30 05:38:37;;;;;;;2.08;0.77;;;28.80;38.60;;;;;;5051025;28;20563;-82
2022/08/30 05:41:05;;;;;;;0.40;0.30;;;28.80;38.60;;;;;;5050863;28;20048;-82
2022/08/30 05:43:33;;;;;;;0.47;0.40;;;28.80;38.60;;;;;;5051326;28;20045;-82
2022/08/30 05:46:02;;;;;;;1.77;0.30;;;28.80;38.60;;;;;;5065259;28;20079;-82
2022/08/30 05:48:29;;;;;;;0.40;0.40;;;28.80;39.20;;;;;;5071578;28;20080;-82
2022/08/30 05:51:04;;;;;;;0.68;0.40;;;28.80;38.60;;;;;;5054285;28;20063;-82
2022/08/30 05:53:31;;;;;;;1.92;0.40;;;28.80;38.60;;;;;;5064170;28;20045;-82
2022/08/30 05:56:00;;;;;;;0.80;0.30;;;28.80;38.60;;;;;;5072418;28;20502;-82
2022/08/30 05:58:27;;;;;;;1.05;0.25;;;28.80;38.60;;;;;;5063825;28;20124;-83
2022/08/30 06:00:55;;;;;;;0.88;0.68;;;28.80;38.60;;;;;;5052749;28;20045;-82
2022/08/30 06:03:22;;;;;;;0.63;0.63;;;28.80;38.60;;;;;;5063741;28;20083;-82
2022/08/30 06:05:49;;;;;;;0.63;0.60;;;28.80;38.60;;;;;;5070931;28;20036;-82
2022/08/30 06:08:20;;;;;;;1.45;0.20;;;28.80;38.60;;;;;;5069608;28;20045;-82
2022/08/30 06:10:48;;;;;;;2.15;0.20;;;28.80;38.60;;;;;;5063506;28;20094;-83
2022/08/30 06:13:15;;;;;;;1.23;0.35;;;28.80;38.60;;;;;;5071907;28;20068;-83
2022/08/30 06:15:43;;;;;;;2.80;0.40;;;28.80;38.60;;;;;;5071771;28;20044;-82
2022/08/30 06:18:13;;;;;;;0.80;0.80;;;28.80;38.60;;;;;;5071184;28;20058;-83
2022/08/30 06:20:42;;;;;;;3.30;0.30;;;28.80;38.60;;;;;;5071349;28;20468;-81
2022/08/30 06:23:09;;;;;;;0.85;0.20;;;28.80;38.50;;;;;;5053281;28;20041;-83
2022/08/30 06:25:37;;;;;;;3.50;0.40;;;28.80;38.50;;;;;;5060404;28;20479;-82
2022/08/30 06:28:05;;;;;;;1.17;0.47;;;28.80;38.50;;;;;;5059135;28;20203;-82
2022/08/30 06:30:32;;;;;;;0.45;0.40;;;28.80;38.50;;;;;;5052475;28;20088;-83
2022/08/30 06:33:00;;;;;;;1.45;0.57;;;28.70;38.40;;;;;;5050631;28;20045;-83
2022/08/30 06:35:30;;;;;;;1.48;0.25;;;28.70;38.40;;;;;;5059655;28;20406;-83
2022/08/30 06:37:57;;;;;;;0.68;0.38;;;28.70;38.40;;;;;;5069689;28;20451;-83
2022/08/30 06:40:25;;;;;;;1.20;0.35;;;28.80;38.50;;;;;;5052977;28;20041;-83
2022/08/30 06:42:53;;;;;;;0.38;0.38;;;28.80;38.50;;;;;;5051590;28;20067;-83
2022/08/30 06:45:20;;;;;;;3.60;1.00;;;28.80;38.50;;;;;;5045189;28;20394;-82
2022/08/30 06:47:48;;;;;;;2.58;0.85;;;28.80;38.50;;;;;;5071244;28;20037;-83
2022/08/30 06:50:19;;;;;;;2.03;0.50;;;28.80;38.50;;;;;;5069931;28;20055;-82
2022/08/30 06:52:47;;;;;;;2.05;0.43;;;28.80;38.50;;;;;;5069805;28;20421;-82
2022/08/30 06:55:16;;;;;;;0.60;0.43;;;28.80;38.40;;;;;;5051323;28;20072;-82
2022/08/30 06:57:43;;;;;;;0.60;0.22;;;28.80;38.50;;;;;;5069813;28;20068;-81
2022/08/30 07:00:14;;;;;;;1.10;1.00;;;28.80;38.40;;;;;;5069396;28;20063;-81
2022/08/30 07:02:42;;;;;;;0.73;0.20;;;28.80;38.40;;;;;;5070637;28;20148;-81
2022/08/30 07:05:11;;;;;;;0.77;0.55;;;28.80;38.40;;;;;;5050809;28;20433;-82
2022/08/30 07:07:39;;;;;;;1.50;0.57;;;28.80;38.40;;;;;;5070247;28;20045;-81
2022/08/30 07:10:08;;;;;;;0.35;0.35;;;28.80;38.30;;;;;;5056564;28;20041;-81
2022/08/30 07:12:36;;;;;;;1.23;0.70;;;28.80;38.30;;;;;;5074868;28;20679;-81
2022/08/30 07:15:05;;;;;;;0.47;0.25;;;28.80;38.30;;;;;;5053155;28;20051;-81
2022/08/30 07:20:18;;;;;;;3.60;0.40;;;28.80;38.20;;;;;;5055643;28;20041;-81
2022/08/30 07:22:45;;;;;;;1.98;0.60;;;28.90;38.20;;;;;;5052400;28;20091;-80
2022/08/30 07:25:14;;;;;;;4.45;0.40;;;28.90;38.20;;;;;;5056896;28;20115;-81
2022/08/30 07:27:41;;;;;;;1.60;1.38;;;28.90;38.20;;;;;;5051913;28;20045;-81
2022/08/30 07:30:10;;;;;;;1.95;0.75;;;28.90;38.20;;;;;;5051928;28;20052;-81
2022/08/30 07:32:37;;;;;;;0.50;0.20;;;28.90;38.20;;;;;;5071790;28;20048;-80
2022/08/30 07:35:05;;;;;;;0.63;0.63;;;29.00;38.30;;;;;;5054302;28;20421;-81
2022/08/30 07:37:32;;;;;;;0.63;0.30;;;29.00;38.20;;;;;;5032243;28;20037;-80
2022/08/30 07:39:59;;;;;;;0.52;0.20;;;29.00;38.20;;;;;;5048828;28;20045;-79
2022/08/30 07:42:30;;;;;;;0.50;0.47;;;28.90;38.10;;;;;;5068053;28;20048;-80
2022/08/30 07:44:57;;;;;;;1.38;0.20;;;29.00;38.10;;;;;;5071820;28;20098;-81
2022/08/30 07:47:24;;;;;;;1.73;0.45;;;28.90;38.10;;;;;;5071721;28;20064;-81
2022/08/30 07:49:51;;;;;;;0.52;0.22;;;29.00;38.10;;;;;;5071333;28;20129;-80
2022/08/30 07:52:18;;;;;;;0.70;0.55;;;29.00;38.10;;;;;;5072110;28;20381;-81
2022/08/30 07:54:45;;;;;;;0.90;0.70;;;29.00;38.00;;;;;;5071560;28;20053;-81
2022/08/30 07:57:12;;;;;;;3.13;0.45;;;29.00;38.00;;;;;;5068700;28;20120;-80
2022/08/30 07:59:41;;;;;;;0.43;0.30;;;29.00;38.00;;;;;;5071843;28;20491;-81
2022/08/30 08:02:08;;;;;;;0.65;0.45;;;29.00;38.00;;;;;;5060977;28;20049;-81
2022/08/30 08:04:35;;;;;;;1.23;0.47;;;29.00;37.90;;;;;;5051083;28;20146;-80
2022/08/30 08:07:02;;;;;;;2.05;0.47;;;29.10;38.60;;;;;;5063964;28;20041;-80
2022/08/30 08:09:29;;;;;;;2.08;0.80;;;29.00;37.90;;;;;;5071656;28;20044;-81
2022/08/30 08:11:56;;;;;;;0.90;0.40;;;29.10;37.90;;;;;;5071524;28;20040;-80
2022/08/30 08:14:23;;;;;;;1.90;0.60;;;29.10;37.90;;;;;;5071958;28;20125;-80
2022/08/30 08:16:52;;;;;;;1.00;0.20;;;29.10;37.80;;;;;;5071209;28;20044;-82
2022/08/30 08:19:19;;;;;;;2.75;0.30;;;29.10;37.80;;;;;;5071438;28;20112;-81
2022/08/30 08:21:46;;;;;;;3.67;0.70;;;29.10;37.80;;;;;;5071804;28;20079;-81
2022/08/30 08:24:13;;;;;;;2.47;0.28;;;29.10;37.70;;;;;;5054960;28;20068;-81
2022/08/30 08:26:41;;;;;;;2.35;0.70;;;29.10;37.70;;;;;;5070865;28;20417;-81
2022/08/30 08:29:09;;;;;;;1.60;0.20;;;29.10;38.40;;;;;;5051623;28;20568;-81
2022/08/30 08:31:37;;;;;;;1.38;0.52;;;29.10;37.60;;;;;;5051040;28;20410;-81
2022/08/30 08:34:05;;;;;;;1.67;0.32;;;29.10;37.60;;;;;;5051521;28;20057;-81
2022/08/30 08:36:33;;;;;;;0.50;0.35;;;29.20;37.60;;;;;;5059011;28;20059;-81
2022/08/30 08:39:01;;;;;;;2.78;0.52;;;29.20;37.50;;;;;;5070720;28;20120;-81
2022/08/30 08:41:48;;;;;;;3.50;1.52;;;29.20;37.50;;;;;;5070813;28;20049;-82
2022/08/30 08:44:26;;;;;;;1.27;0.30;;;29.20;37.50;;;;;;5052721;28;20127;-81
2022/08/30 08:47:02;;;;;;;1.70;0.35;;;29.20;37.40;;;;;;5062366;28;20131;-81
2022/08/30 08:49:31;;;;;;;2.22;2.03;;;29.20;37.40;;;;;;5071359;28;20513;-81
2022/08/30 08:54:48;;;;;;;2.90;1.08;;;29.30;37.50;;;;;;5050783;28;20052;-80
2022/08/30 08:57:15;;;;;;;2.88;1.00;;;29.30;37.40;;;;;;5063825;28;20045;-81
2022/08/30 08:59:43;;;;;;;1.88;0.80;;;29.30;37.40;;;;;;5050526;28;20044;-81
2022/08/30 09:02:24;;;;;;;2.20;0.77;;;29.30;37.40;;;;;;5052155;28;20045;-81
2022/08/30 09:04:57;;;;;;;1.17;0.65;;;29.40;37.40;;;;;;5067439;28;20138;-81
2022/08/30 09:07:28;;;;;;;1.98;0.40;;;29.30;37.40;;;;;;5055188;28;20056;-80
2022/08/30 09:09:58;;;;;;;2.20;0.50;;;29.40;37.40;;;;;;5054071;28;20060;-81
2022/08/30 09:12:26;;;;;;;1.80;0.63;;;29.40;37.40;;;;;;5030971;28;20135;-82
2022/08/30 09:14:55;;;;;;;1.00;0.40;;;29.40;37.40;;;;;;5058017;28;20044;-82
2022/08/30 09:17:23;;;;;;;1.48;0.30;;;29.40;38.00;;;;;;5071275;28;20079;-82
2022/08/30 09:20:00;;;;;;;1.75;0.38;;;29.40;38.00;;;;;;5067222;28;20090;-82
2022/08/30 09:22:33;;;;;;;3.65;0.63;;;29.50;37.40;;;;;;5031852;28;20105;-82
2022/08/30 09:25:03;;;;;;;1.52;0.50;;;29.40;37.30;;;;;;5031267;28;20124;-82
2022/08/30 09:27:33;;;;;;;2.30;0.50;;;29.50;37.40;;;;;;5054688;28;20037;-81
2022/08/30 09:30:05;;;;;;;5.45;0.60;;;29.40;37.30;;;;;;5050497;28;20045;-81
2022/08/30 09:32:36;;;;;;;3.17;1.00;;;29.50;37.40;;;;;;5032782;28;20679;-82
2022/08/30 09:35:08;;;;;;;2.95;0.93;;;29.50;37.40;;;;;;5051281;28;20048;-81
2022/08/30 09:37:39;;;;;;;3.60;0.55;;;29.50;37.30;;;;;;5062496;28;20045;-82
2022/08/30 09:40:17;;;;;;;2.10;0.57;;;29.50;37.30;;;;;;5054682;28;20567;-82
2022/08/30 09:43:03;;;;;;;0.95;0.35;;;29.50;37.30;;;;;;5072612;28;20057;-81
2022/08/30 09:45:34;;;;;;;1.00;0.47;;;29.60;37.30;;;;;;5071303;28;20062;-81
2022/08/30 09:48:21;;;;;;;2.92;0.70;;;29.60;37.30;;;;;;5061055;28;20072;-81
2022/08/30 09:50:54;;;;;;;4.45;0.93;;;29.60;37.30;;;;;;5066962;28;20048;-82
2022/08/30 09:53:30;;;;;;;1.02;0.93;;;29.60;37.30;;;;;;5066968;28;20513;-81
2022/08/30 09:56:06;;;;;;;1.10;0.35;;;29.60;37.20;;;;;;5050165;28;20111;-82
2022/08/30 09:58:58;;;;;;;4.50;0.63;;;29.60;37.20;;;;;;5050653;28;20064;-81
2022/08/30 10:01:30;;;;;;;1.58;0.80;;;29.70;37.30;;;;;;5057092;28;20068;-81
2022/08/30 10:04:05;;;;;;;1.58;0.70;;;29.60;37.20;;;;;;5070653;28;20045;-82
2022/08/30 10:06:39;;;;;;;0.85;0.60;;;29.70;37.30;;;;;;5070386;28;20048;-82
2022/08/30 10:09:18;;;;;;;0.77;0.50;;;29.70;37.30;;;;;;5042458;28;20056;-82
2022/08/30 10:11:54;;;;;;;6.07;0.60;;;29.70;37.20;;;;;;5065647;28;20064;-81
2022/08/30 10:14:44;;;;;;;2.00;0.73;;;29.70;37.20;;;;;;5070633;28;20040;-81
2022/08/30 10:17:22;;;;;;;4.45;0.75;;;29.70;37.20;;;;;;5050375;28;20079;-82
2022/08/30 10:20:07;;;;;;;2.45;0.60;;;29.80;37.30;;;;;;5071765;28;20535;-82
2022/08/30 10:22:38;;;;;;;1.65;0.73;;;29.70;37.20;;;;;;5054008;28;20049;-81
2022/08/30 10:25:10;;;;;;;0.47;0.40;;;29.70;37.20;;;;;;5071520;28;20754;-82
2022/08/30 10:27:47;;;;;;;1.02;0.43;;;29.80;37.30;;;;;;5043162;28;20136;-81
2022/08/30 10:30:15;;;;;;;2.95;0.88;;;29.80;37.20;;;;;;5049822;28;20981;-82
2022/08/30 10:32:49;;;;;;;1.60;0.60;;;29.80;37.20;;;;;;5066964;28;20130;-81
2022/08/30 10:35:20;;;;;;;0.35;0.35;;;29.80;37.20;;;;;;5049989;28;20044;-82
2022/08/30 10:37:53;;;;;;;4.15;0.60;;;29.80;37.10;;;;;;5052321;28;20579;-82
2022/08/30 10:43:23;;;;;;;1.98;0.40;;;29.80;37.10;;;;;;5036461;28;20398;-82
2022/08/30 10:45:55;;;;;;;2.10;0.30;;;29.80;37.10;;;;;;5064420;28;20045;-82
2022/08/30 10:48:29;;;;;;;2.40;0.70;;;29.80;37.10;;;;;;5036374;28;20041;-82
2022/08/30 10:51:02;;;;;;;2.05;0.43;;;29.80;37.00;;;;;;5054213;28;20053;-82
2022/08/30 10:53:39;;;;;;;1.77;0.40;;;29.90;37.10;;;;;;5036230;28;20413;-82
2022/08/30 10:56:11;;;;;;;6.80;1.33;;;29.90;37.10;;;;;;5053711;28;20489;-82
2022/08/30 10:58:40;;;;;;;2.55;0.40;;;29.90;37.10;;;;;;5035797;28;20044;-82
2022/08/30 11:01:20;;;;;;;3.38;0.50;;;29.90;37.10;;;;;;5055451;28;20460;-82
2022/08/30 11:04:16;;;;;;;1.42;0.45;;;30.00;37.10;;;;;;5056070;28;20045;-82
2022/08/30 11:06:50;;;;;;;3.45;0.60;;;30.00;37.10;;;;;;5056353;28;20060;-82
2022/08/30 11:09:34;;;;;;;3.25;0.50;;;29.90;37.70;;;;;;5062315;28;20045;-82
2022/08/30 11:12:29;;;;;;;0.70;0.52;;;29.90;37.00;;;;;;5053155;28;20107;-81
2022/08/30 11:14:57;;;;;;;0.93;0.57;;;30.00;37.10;;;;;;5062275;28;20056;-81
2022/08/30 11:17:29;;;;;;;0.90;0.52;;;29.90;37.00;;;;;;5073597;28;20052;-82
2022/08/30 11:19:58;;;;;;;0.40;0.32;;;30.00;37.10;;;;;;5073554;28;20059;-82
2022/08/30 11:22:30;;;;;;;3.00;0.75;;;30.00;37.10;;;;;;5073400;28;20047;-82
2022/08/30 11:25:06;;;;;;;1.23;0.60;;;30.00;37.00;;;;;;5069659;28;20084;-82
2022/08/30 11:27:45;;;;;;;1.85;0.50;;;30.00;37.10;;;;;;5053026;28;20094;-82
2022/08/30 11:30:46;;;;;;;0.57;0.20;;;30.00;37.00;;;;;;5072025;28;20056;-82
2022/08/30 11:33:41;;;;;;;4.18;0.60;;;30.00;36.90;;;;;;4992142;28;20069;-82
2022/08/30 11:36:09;;;;;;;3.25;0.38;;;30.10;37.00;;;;;;4999613;28;20046;-82
2022/08/30 11:39:01;;;;;;;2.05;0.50;;;30.00;37.00;;;;;;4991687;28;20050;-82
2022/08/30 11:41:36;;;;;;;4.53;0.82;;;30.00;37.00;;;;;;4991568;28;20042;-82
2022/08/30 11:44:26;;;;;;;0.65;0.38;;;30.00;37.00;;;;;;4972587;28;20058;-81
2022/08/30 11:46:55;;;;;;;1.30;0.35;;;30.10;37.00;;;;;;4955493;28;20556;-82
2022/08/30 11:49:45;;;;;;;0.80;0.80;;;30.00;37.00;;;;;;4956956;28;20137;-82
2022/08/30 11:52:26;;;;;;;2.28;0.30;;;30.10;37.00;;;;;;4992695;28;20123;-82
2022/08/30 11:55:25;;;;;;;1.42;0.55;;;30.10;37.00;;;;;;4992312;28;20097;-82
2022/08/30 11:58:05;;;;;;;1.08;0.30;;;30.10;37.00;;;;;;4993921;28;20065;-82
2022/08/30 12:00:35;;;;;;;1.63;0.30;;;30.10;37.00;;;;;;5010817;28;20050;-82
2022/08/30 12:03:04;;;;;;;3.22;0.47;;;30.10;37.10;;;;;;4995046;28;20076;-82
2022/08/30 12:05:56;;;;;;;2.33;0.40;;;30.10;37.00;;;;;;4990789;28;20074;-81
2022/08/30 12:09:00;;;;;;;2.53;0.85;;;30.20;37.10;;;;;;5030266;28;20052;-82
2022/08/30 12:11:55;;;;;;;1.02;0.52;;;30.20;37.10;;;;;;5052416;28;20588;-82
2022/08/30 12:14:37;;;;;;;1.48;0.57;;;30.20;37.10;;;;;;5052493;28;20349;-82
2022/08/30 12:20:03;;;;;;;3.30;0.90;;;30.20;37.10;;;;;;5010083;28;20052;-82
2022/08/30 12:22:36;;;;;;;2.28;0.95;;;30.20;37.20;;;;;;5009572;28;20049;-82
2022/08/30 12:25:17;;;;;;;2.58;1.25;;;30.20;37.10;;;;;;5005887;28;20100;-81
2022/08/30 12:27:44;;;;;;;1.73;0.75;;;30.30;37.20;;;;;;4990136;28;20042;-82
2022/08/30 12:30:13;;;;;;;1.27;0.57;;;30.20;37.10;;;;;;4991497;28;20070;-82
2022/08/30 12:32:45;;;;;;;2.65;1.35;;;30.30;37.20;;;;;;5009994;28;20069;-81
2022/08/30 12:35:21;;;;;;;1.67;1.23;;;30.30;37.10;;;;;;5001336;28;20043;-82
2022/08/30 12:37:58;;;;;;;1.88;0.90;;;30.30;37.20;;;;;;4990494;28;20163;-81
2022/08/30 12:40:26;;;;;;;2.17;1.33;;;30.30;37.10;;;;;;4981705;28;20046;-81
2022/08/30 12:42:56;;;;;;;4.18;1.15;;;30.30;37.10;;;;;;5010677;28;20443;-82
2022/08/30 12:45:28;;;;;;;1.67;1.55;;;30.30;37.10;;;;;;4999317;28;20043;-82
2022/08/30 12:47:58;;;;;;;5.78;1.08;;;30.30;37.10;;;;;;4958917;28;20562;-81
2022/08/30 12:50:29;;;;;;;3.28;1.42;;;30.30;37.10;;;;;;4996322;28;20045;-81
2022/08/30 12:52:58;;;;;;;2.13;0.93;;;30.30;37.10;;;;;;4992970;28;20536;-82
2022/08/30 12:55:29;;;;;;;2.08;0.80;;;30.30;37.10;;;;;;5009964;28;20046;-81
2022/08/30 12:57:59;;;;;;;1.63;0.85;;;30.40;37.10;;;;;;5062655;28;20166;-82
2022/08/30 13:00:30;;;;;;;1.23;0.90;;;30.40;37.10;;;;;;5053725;28;20052;-82
2022/08/30 13:03:02;;;;;;;2.58;1.02;;;30.40;37.10;;;;;;5053353;28;20052;-82
2022/08/30 13:05:47;;;;;;;2.92;1.27;;;30.40;37.20;;;;;;5070245;28;20041;-80
2022/08/30 13:08:18;;;;;;;1.83;1.73;;;30.40;37.10;;;;;;5068455;28;20048;-82
2022/08/30 13:10:58;;;;;;;1.83;0.90;;;30.40;37.10;;;;;;5051094;28;20607;-82
2022/08/30 13:13:44;;;;;;;1.50;1.35;;;30.40;37.10;;;;;;5051333;28;20488;-82
2022/08/30 13:16:24;;;;;;;2.17;1.13;;;30.50;37.20;;;;;;5052987;28;20658;-82
2022/08/30 13:18:53;;;;;;;1.80;1.58;;;30.50;37.20;;;;;;5032512;28;20072;-82